sensor_id;sensor_type;location;lat;lon;timestamp;pressure;altitude;pressure_sealevel;temperature
5571;BMP180;2808;51.240;6.794;2022-11-30T00:00:50;101652.00;;;7.60
5571;BMP180;2808;51.240;6.794;2022-11-30T00:03:17;101646.00;;;7.60
5571;BMP180;2808;51.240;6.794;2022-11-30T00:05:45;101640.00;;;7.60
5571;BMP180;2808;51.240;6.794;2022-11-30T00:08:12;101643.00;;;7.60
5571;BMP180;2808;51.240;6.794;2022-11-30T00:10:42;101648.00;;;7.60
5571;BMP180;2808;51.240;6.794;2022-11-30T00:13:09;101641.00;;;7.60
5571;BMP180;2808;51.240;6.794;2022-11-30T00:15:37;101644.00;;;7.60
5571;BMP180;2808;51.240;6.794;2022-11-30T00:18:05;101642.00;;;7.60
5571;BMP180;2808;51.240;6.794;2022-11-30T00:20:32;101642.00;;;7.60
5571;BMP180;2808;51.240;6.794;2022-11-30T00:22:59;101643.00;;;7.50
5571;BMP180;2808;51.240;6.794;2022-11-30T00:25:27;101651.00;;;7.60
5571;BMP180;2808;51.240;6.794;2022-11-30T00:27:59;101656.00;;;7.50
5571;BMP180;2808;51.240;6.794;2022-11-30T00:30:27;101648.00;;;7.60
5571;BMP180;2808;51.240;6.794;2022-11-30T00:32:56;101655.00;;;7.50
5571;BMP180;2808;51.240;6.794;2022-11-30T00:35:24;101657.00;;;7.60
5571;BMP180;2808;51.240;6.794;2022-11-30T00:37:51;101640.00;;;7.60
5571;BMP180;2808;51.240;6.794;2022-11-30T00:40:18;101649.00;;;7.70
5571;BMP180;2808;51.240;6.794;2022-11-30T00:42:46;101648.00;;;7.80
5571;BMP180;2808;51.240;6.794;2022-11-30T00:45:18;101641.00;;;7.80
5571;BMP180;2808;51.240;6.794;2022-11-30T00:47:45;101644.00;;;7.70
5571;BMP180;2808;51.240;6.794;2022-11-30T00:50:12;101651.00;;;7.70
5571;BMP180;2808;51.240;6.794;2022-11-30T00:52:40;101646.00;;;7.60
5571;BMP180;2808;51.240;6.794;2022-11-30T00:55:08;101642.00;;;7.60
5571;BMP180;2808;51.240;6.794;2022-11-30T00:57:35;101654.00;;;7.60
5571;BMP180;2808;51.240;6.794;2022-11-30T01:00:04;101648.00;;;7.60
5571;BMP180;2808;51.240;6.794;2022-11-30T01:02:32;101649.00;;;7.60
5571;BMP180;2808;51.240;6.794;2022-11-30T01:05:00;101639.00;;;7.60
5571;BMP180;2808;51.240;6.794;2022-11-30T01:07:27;101647.00;;;7.60
5571;BMP180;2808;51.240;6.794;2022-11-30T01:09:55;101644.00;;;7.60
5571;BMP180;2808;51.240;6.794;2022-11-30T01:12:22;101643.00;;;7.60
5571;BMP180;2808;51.240;6.794;2022-11-30T01:14:50;101651.00;;;7.60
5571;BMP180;2808;51.240;6.794;2022-11-30T01:17:17;101650.00;;;7.60
5571;BMP180;2808;51.240;6.794;2022-11-30T01:19:46;101645.00;;;7.60
5571;BMP180;2808;51.240;6.794;2022-11-30T01:22:14;101654.00;;;7.50
5571;BMP180;2808;51.240;6.794;2022-11-30T01:24:43;101662.00;;;7.50
5571;BMP180;2808;51.240;6.794;2022-11-30T01:27:10;101655.00;;;7.60
5571;BMP180;2808;51.240;6.794;2022-11-30T01:29:38;101668.00;;;7.50
5571;BMP180;2808;51.240;6.794;2022-11-30T01:32:06;101660.00;;;7.60
5571;BMP180;2808;51.240;6.794;2022-11-30T01:34:33;101651.00;;;7.60
5571;BMP180;2808;51.240;6.794;2022-11-30T01:37:02;101651.00;;;7.60
5571;BMP180;2808;51.240;6.794;2022-11-30T01:39:29;101654.00;;;7.60
5571;BMP180;2808;51.240;6.794;2022-11-30T01:41:57;101661.00;;;7.60
5571;BMP180;2808;51.240;6.794;2022-11-30T01:44:48;101656.00;;;7.60
5571;BMP180;2808;51.240;6.794;2022-11-30T01:47:18;101650.00;;;7.60
5571;BMP180;2808;51.240;6.794;2022-11-30T01:49:50;101659.00;;;7.60
5571;BMP180;2808;51.240;6.794;2022-11-30T01:52:24;101661.00;;;7.60
5571;BMP180;2808;51.240;6.794;2022-11-30T01:54:56;101653.00;;;7.60
5571;BMP180;2808;51.240;6.794;2022-11-30T01:57:30;101662.00;;;7.60
5571;BMP180;2808;51.240;6.794;2022-11-30T02:00:04;101662.00;;;7.60
5571;BMP180;2808;51.240;6.794;2022-11-30T02:02:39;101668.00;;;7.60
5571;BMP180;2808;51.240;6.794;2022-11-30T02:05:09;101674.00;;;7.60
5571;BMP180;2808;51.240;6.794;2022-11-30T02:07:39;101665.00;;;7.60
5571;BMP180;2808;51.240;6.794;2022-11-30T02:10:11;101660.00;;;7.60
5571;BMP180;2808;51.240;6.794;2022-11-30T02:12:49;101663.00;;;7.60
5571;BMP180;2808;51.240;6.794;2022-11-30T02:15:21;101657.00;;;7.60
5571;BMP180;2808;51.240;6.794;2022-11-30T02:17:56;101661.00;;;7.60
5571;BMP180;2808;51.240;6.794;2022-11-30T02:20:34;101658.00;;;7.60
5571;BMP180;2808;51.240;6.794;2022-11-30T02:23:24;101664.00;;;7.60
5571;BMP180;2808;51.240;6.794;2022-11-30T02:25:58;101658.00;;;7.60
5571;BMP180;2808;51.240;6.794;2022-11-30T02:29:03;101658.00;;;7.60
5571;BMP180;2808;51.240;6.794;2022-11-30T02:31:39;101655.00;;;7.60
5571;BMP180;2808;51.240;6.794;2022-11-30T02:34:10;101660.00;;;7.60
5571;BMP180;2808;51.240;6.794;2022-11-30T02:36:38;101655.00;;;7.60
5571;BMP180;2808;51.240;6.794;2022-11-30T02:39:06;101643.00;;;7.60
5571;BMP180;2808;51.240;6.794;2022-11-30T02:41:36;101645.00;;;7.70
5571;BMP180;2808;51.240;6.794;2022-11-30T02:44:08;101647.00;;;7.70
5571;BMP180;2808;51.240;6.794;2022-11-30T02:46:45;101646.00;;;7.60
5571;BMP180;2808;51.240;6.794;2022-11-30T02:49:22;101648.00;;;7.60
5571;BMP180;2808;51.240;6.794;2022-11-30T02:51:56;101648.00;;;7.70
5571;BMP180;2808;51.240;6.794;2022-11-30T02:54:24;101646.00;;;7.70
5571;BMP180;2808;51.240;6.794;2022-11-30T02:56:52;101654.00;;;7.70
5571;BMP180;2808;51.240;6.794;2022-11-30T02:59:21;101645.00;;;7.70
5571;BMP180;2808;51.240;6.794;2022-11-30T03:01:48;101655.00;;;7.70
5571;BMP180;2808;51.240;6.794;2022-11-30T03:04:16;101655.00;;;7.70
5571;BMP180;2808;51.240;6.794;2022-11-30T03:06:43;101649.00;;;7.70
5571;BMP180;2808;51.240;6.794;2022-11-30T03:09:10;101655.00;;;7.70
5571;BMP180;2808;51.240;6.794;2022-11-30T03:11:38;101649.00;;;7.70
5571;BMP180;2808;51.240;6.794;2022-11-30T03:14:05;101650.00;;;7.70
5571;BMP180;2808;51.240;6.794;2022-11-30T03:16:35;101649.00;;;7.70
5571;BMP180;2808;51.240;6.794;2022-11-30T03:19:03;101653.00;;;7.70
5571;BMP180;2808;51.240;6.794;2022-11-30T03:21:31;101654.00;;;7.70
5571;BMP180;2808;51.240;6.794;2022-11-30T03:23:58;101652.00;;;7.70
5571;BMP180;2808;51.240;6.794;2022-11-30T03:26:25;101652.00;;;7.70
5571;BMP180;2808;51.240;6.794;2022-11-30T03:28:53;101650.00;;;7.70
5571;BMP180;2808;51.240;6.794;2022-11-30T03:31:20;101654.00;;;7.70
5571;BMP180;2808;51.240;6.794;2022-11-30T03:33:49;101657.00;;;7.70
5571;BMP180;2808;51.240;6.794;2022-11-30T03:36:16;101657.00;;;7.70
5571;BMP180;2808;51.240;6.794;2022-11-30T03:38:44;101655.00;;;7.70
5571;BMP180;2808;51.240;6.794;2022-11-30T03:41:14;101653.00;;;7.70
5571;BMP180;2808;51.240;6.794;2022-11-30T03:43:42;101657.00;;;7.70
5571;BMP180;2808;51.240;6.794;2022-11-30T03:46:10;101657.00;;;7.70
5571;BMP180;2808;51.240;6.794;2022-11-30T03:48:38;101659.00;;;7.70
5571;BMP180;2808;51.240;6.794;2022-11-30T03:51:10;101660.00;;;7.70
5571;BMP180;2808;51.240;6.794;2022-11-30T03:53:37;101666.00;;;7.70
5571;BMP180;2808;51.240;6.794;2022-11-30T03:56:07;101663.00;;;7.70
5571;BMP180;2808;51.240;6.794;2022-11-30T03:58:35;101669.00;;;7.60
5571;BMP180;2808;51.240;6.794;2022-11-30T04:01:04;101676.00;;;7.60
5571;BMP180;2808;51.240;6.794;2022-11-30T04:03:33;101670.00;;;7.60
5571;BMP180;2808;51.240;6.794;2022-11-30T04:06:01;101674.00;;;7.50
5571;BMP180;2808;51.240;6.794;2022-11-30T04:08:30;101663.00;;;7.50
5571;BMP180;2808;51.240;6.794;2022-11-30T04:10:59;101680.00;;;7.60
5571;BMP180;2808;51.240;6.794;2022-11-30T04:13:30;101675.00;;;7.60
5571;BMP180;2808;51.240;6.794;2022-11-30T04:15:58;101670.00;;;7.60
5571;BMP180;2808;51.240;6.794;2022-11-30T04:18:27;101674.00;;;7.60
5571;BMP180;2808;51.240;6.794;2022-11-30T04:20:57;101684.00;;;7.60
5571;BMP180;2808;51.240;6.794;2022-11-30T04:23:27;101681.00;;;7.50
5571;BMP180;2808;51.240;6.794;2022-11-30T04:25:57;101680.00;;;7.50
5571;BMP180;2808;51.240;6.794;2022-11-30T04:28:24;101690.00;;;7.50
5571;BMP180;2808;51.240;6.794;2022-11-30T04:30:52;101685.00;;;7.40
5571;BMP180;2808;51.240;6.794;2022-11-30T04:33:20;101685.00;;;7.40
5571;BMP180;2808;51.240;6.794;2022-11-30T04:35:50;101688.00;;;7.40
5571;BMP180;2808;51.240;6.794;2022-11-30T04:38:18;101683.00;;;7.30
5571;BMP180;2808;51.240;6.794;2022-11-30T04:40:45;101695.00;;;7.20
5571;BMP180;2808;51.240;6.794;2022-11-30T04:43:14;101696.00;;;7.20
5571;BMP180;2808;51.240;6.794;2022-11-30T04:45:43;101695.00;;;7.10
5571;BMP180;2808;51.240;6.794;2022-11-30T04:48:11;101696.00;;;7.10
5571;BMP180;2808;51.240;6.794;2022-11-30T04:50:38;101698.00;;;7.10
5571;BMP180;2808;51.240;6.794;2022-11-30T04:53:06;101686.00;;;7.00
5571;BMP180;2808;51.240;6.794;2022-11-30T04:55:34;101693.00;;;7.00
5571;BMP180;2808;51.240;6.794;2022-11-30T04:58:02;101700.00;;;7.00
5571;BMP180;2808;51.240;6.794;2022-11-30T05:00:31;101693.00;;;7.00
5571;BMP180;2808;51.240;6.794;2022-11-30T05:02:59;101695.00;;;7.00
5571;BMP180;2808;51.240;6.794;2022-11-30T05:05:26;101696.00;;;7.00
5571;BMP180;2808;51.240;6.794;2022-11-30T05:07:55;101696.00;;;7.00
5571;BMP180;2808;51.240;6.794;2022-11-30T05:10:26;101699.00;;;7.00
5571;BMP180;2808;51.240;6.794;2022-11-30T05:12:55;101706.00;;;7.00
5571;BMP180;2808;51.240;6.794;2022-11-30T05:15:22;101705.00;;;7.00
5571;BMP180;2808;51.240;6.794;2022-11-30T05:17:51;101696.00;;;6.90
5571;BMP180;2808;51.240;6.794;2022-11-30T05:20:18;101706.00;;;6.90
5571;BMP180;2808;51.240;6.794;2022-11-30T05:22:47;101702.00;;;6.90
5571;BMP180;2808;51.240;6.794;2022-11-30T05:25:14;101704.00;;;6.90
5571;BMP180;2808;51.240;6.794;2022-11-30T05:27:42;101703.00;;;6.90
5571;BMP180;2808;51.240;6.794;2022-11-30T05:30:10;101704.00;;;6.90
5571;BMP180;2808;51.240;6.794;2022-11-30T05:32:38;101717.00;;;6.90
5571;BMP180;2808;51.240;6.794;2022-11-30T05:35:07;101707.00;;;6.90
5571;BMP180;2808;51.240;6.794;2022-11-30T05:37:35;101706.00;;;6.90
5571;BMP180;2808;51.240;6.794;2022-11-30T05:40:03;101716.00;;;6.90
5571;BMP180;2808;51.240;6.794;2022-11-30T05:42:30;101711.00;;;6.90
5571;BMP180;2808;51.240;6.794;2022-11-30T05:44:57;101708.00;;;6.90
5571;BMP180;2808;51.240;6.794;2022-11-30T05:47:25;101703.00;;;6.90
5571;BMP180;2808;51.240;6.794;2022-11-30T05:49:52;101707.00;;;6.90
5571;BMP180;2808;51.240;6.794;2022-11-30T05:52:21;101707.00;;;6.90
5571;BMP180;2808;51.240;6.794;2022-11-30T05:54:48;101704.00;;;6.80
5571;BMP180;2808;51.240;6.794;2022-11-30T05:57:16;101712.00;;;6.80
5571;BMP180;2808;51.240;6.794;2022-11-30T05:59:43;101709.00;;;6.80
5571;BMP180;2808;51.240;6.794;2022-11-30T06:02:13;101713.00;;;6.70
5571;BMP180;2808;51.240;6.794;2022-11-30T06:04:41;101713.00;;;6.70
5571;BMP180;2808;51.240;6.794;2022-11-30T06:07:08;101727.00;;;6.70
5571;BMP180;2808;51.240;6.794;2022-11-30T06:09:38;101725.00;;;6.60
5571;BMP180;2808;51.240;6.794;2022-11-30T06:12:06;101722.00;;;6.60
5571;BMP180;2808;51.240;6.794;2022-11-30T06:14:33;101721.00;;;6.60
5571;BMP180;2808;51.240;6.794;2022-11-30T06:17:01;101721.00;;;6.60
5571;BMP180;2808;51.240;6.794;2022-11-30T06:19:28;101724.00;;;6.50
5571;BMP180;2808;51.240;6.794;2022-11-30T06:21:56;101720.00;;;6.50
5571;BMP180;2808;51.240;6.794;2022-11-30T06:24:23;101717.00;;;6.50
5571;BMP180;2808;51.240;6.794;2022-11-30T06:26:52;101718.00;;;6.50
5571;BMP180;2808;51.240;6.794;2022-11-30T06:29:19;101723.00;;;6.60
5571;BMP180;2808;51.240;6.794;2022-11-30T06:31:47;101723.00;;;6.60
5571;BMP180;2808;51.240;6.794;2022-11-30T06:34:14;101726.00;;;6.60
5571;BMP180;2808;51.240;6.794;2022-11-30T06:36:42;101732.00;;;6.60
5571;BMP180;2808;51.240;6.794;2022-11-30T06:39:10;101728.00;;;6.60
5571;BMP180;2808;51.240;6.794;2022-11-30T06:41:38;101717.00;;;6.60
5571;BMP180;2808;51.240;6.794;2022-11-30T06:44:09;101726.00;;;6.60
5571;BMP180;2808;51.240;6.794;2022-11-30T06:46:36;101729.00;;;6.70
5571;BMP180;2808;51.240;6.794;2022-11-30T06:49:04;101727.00;;;6.70
5571;BMP180;2808;51.240;6.794;2022-11-30T06:51:33;101727.00;;;6.70
5571;BMP180;2808;51.240;6.794;2022-11-30T06:54:02;101728.00;;;6.70
5571;BMP180;2808;51.240;6.794;2022-11-30T06:56:31;101731.00;;;6.70
5571;BMP180;2808;51.240;6.794;2022-11-30T06:58:58;101728.00;;;6.80
5571;BMP180;2808;51.240;6.794;2022-11-30T07:01:27;101733.00;;;6.80
5571;BMP180;2808;51.240;6.794;2022-11-30T07:04:00;101732.00;;;6.90
5571;BMP180;2808;51.240;6.794;2022-11-30T07:06:40;101743.00;;;6.90
5571;BMP180;2808;51.240;6.794;2022-11-30T07:09:21;101728.00;;;7.00
5571;BMP180;2808;51.240;6.794;2022-11-30T07:12:27;101739.00;;;7.00
5571;BMP180;2808;51.240;6.794;2022-11-30T07:15:54;101743.00;;;7.00
5571;BMP180;2808;51.240;6.794;2022-11-30T07:18:51;101742.00;;;7.10
5571;BMP180;2808;51.240;6.794;2022-11-30T07:21:45;101744.00;;;7.10
5571;BMP180;2808;51.240;6.794;2022-11-30T07:24:15;101737.00;;;7.10
5571;BMP180;2808;51.240;6.794;2022-11-30T07:27:01;101743.00;;;7.20
5571;BMP180;2808;51.240;6.794;2022-11-30T07:29:48;101750.00;;;7.20
5571;BMP180;2808;51.240;6.794;2022-11-30T07:32:17;101753.00;;;7.20
5571;BMP180;2808;51.240;6.794;2022-11-30T07:34:48;101760.00;;;7.20
5571;BMP180;2808;51.240;6.794;2022-11-30T07:37:18;101758.00;;;7.20
5571;BMP180;2808;51.240;6.794;2022-11-30T07:39:49;101765.00;;;7.20
5571;BMP180;2808;51.240;6.794;2022-11-30T07:42:19;101760.00;;;7.10
5571;BMP180;2808;51.240;6.794;2022-11-30T07:44:54;101779.00;;;7.20
5571;BMP180;2808;51.240;6.794;2022-11-30T07:47:22;101774.00;;;7.20
5571;BMP180;2808;51.240;6.794;2022-11-30T07:49:51;101776.00;;;7.20
5571;BMP180;2808;51.240;6.794;2022-11-30T07:52:18;101783.00;;;7.20
5571;BMP180;2808;51.240;6.794;2022-11-30T07:54:47;101782.00;;;7.20
5571;BMP180;2808;51.240;6.794;2022-11-30T07:57:18;101773.00;;;7.30
5571;BMP180;2808;51.240;6.794;2022-11-30T07:59:45;101778.00;;;7.20
5571;BMP180;2808;51.240;6.794;2022-11-30T08:02:13;101784.00;;;7.30
5571;BMP180;2808;51.240;6.794;2022-11-30T08:04:41;101785.00;;;7.30
5571;BMP180;2808;51.240;6.794;2022-11-30T08:07:09;101789.00;;;7.30
5571;BMP180;2808;51.240;6.794;2022-11-30T08:09:37;101790.00;;;7.30
5571;BMP180;2808;51.240;6.794;2022-11-30T08:12:05;101789.00;;;7.40
5571;BMP180;2808;51.240;6.794;2022-11-30T08:14:32;101791.00;;;7.40
5571;BMP180;2808;51.240;6.794;2022-11-30T08:17:00;101791.00;;;7.40
5571;BMP180;2808;51.240;6.794;2022-11-30T08:19:27;101791.00;;;7.40
5571;BMP180;2808;51.240;6.794;2022-11-30T08:21:55;101798.00;;;7.40
5571;BMP180;2808;51.240;6.794;2022-11-30T08:24:26;101800.00;;;7.40
5571;BMP180;2808;51.240;6.794;2022-11-30T08:26:57;101799.00;;;7.40
5571;BMP180;2808;51.240;6.794;2022-11-30T08:29:28;101811.00;;;7.40
5571;BMP180;2808;51.240;6.794;2022-11-30T08:31:55;101808.00;;;7.40
5571;BMP180;2808;51.240;6.794;2022-11-30T08:34:23;101809.00;;;7.50
5571;BMP180;2808;51.240;6.794;2022-11-30T08:36:51;101803.00;;;7.40
5571;BMP180;2808;51.240;6.794;2022-11-30T08:39:19;101814.00;;;7.40
5571;BMP180;2808;51.240;6.794;2022-11-30T08:41:54;101815.00;;;7.40
5571;BMP180;2808;51.240;6.794;2022-11-30T08:44:22;101812.00;;;7.40
5571;BMP180;2808;51.240;6.794;2022-11-30T08:46:56;101812.00;;;7.40
5571;BMP180;2808;51.240;6.794;2022-11-30T08:49:24;101813.00;;;7.40
5571;BMP180;2808;51.240;6.794;2022-11-30T08:52:00;101813.00;;;7.40
5571;BMP180;2808;51.240;6.794;2022-11-30T08:54:28;101817.00;;;7.40
5571;BMP180;2808;51.240;6.794;2022-11-30T08:56:57;101818.00;;;7.40
5571;BMP180;2808;51.240;6.794;2022-11-30T08:59:25;101824.00;;;7.40
5571;BMP180;2808;51.240;6.794;2022-11-30T09:01:52;101825.00;;;7.30
5571;BMP180;2808;51.240;6.794;2022-11-30T09:04:19;101821.00;;;7.40
5571;BMP180;2808;51.240;6.794;2022-11-30T09:06:47;101823.00;;;7.40
5571;BMP180;2808;51.240;6.794;2022-11-30T09:09:15;101828.00;;;7.40
5571;BMP180;2808;51.240;6.794;2022-11-30T09:11:42;101832.00;;;7.40
5571;BMP180;2808;51.240;6.794;2022-11-30T09:14:11;101842.00;;;7.40
5571;BMP180;2808;51.240;6.794;2022-11-30T09:16:38;101835.00;;;7.40
5571;BMP180;2808;51.240;6.794;2022-11-30T09:19:08;101841.00;;;7.30
5571;BMP180;2808;51.240;6.794;2022-11-30T09:21:36;101837.00;;;7.30
5571;BMP180;2808;51.240;6.794;2022-11-30T09:24:04;101831.00;;;7.30
5571;BMP180;2808;51.240;6.794;2022-11-30T09:26:31;101839.00;;;7.30
5571;BMP180;2808;51.240;6.794;2022-11-30T09:28:59;101831.00;;;7.30
5571;BMP180;2808;51.240;6.794;2022-11-30T09:31:30;101841.00;;;7.30
5571;BMP180;2808;51.240;6.794;2022-11-30T09:33:58;101843.00;;;7.30
5571;BMP180;2808;51.240;6.794;2022-11-30T09:36:26;101841.00;;;7.30
5571;BMP180;2808;51.240;6.794;2022-11-30T09:38:56;101833.00;;;7.20
5571;BMP180;2808;51.240;6.794;2022-11-30T09:44:24;101839.00;;;7.30
5571;BMP180;2808;51.240;6.794;2022-11-30T09:47:01;101834.00;;;7.30
5571;BMP180;2808;51.240;6.794;2022-11-30T09:49:34;101834.00;;;7.30
5571;BMP180;2808;51.240;6.794;2022-11-30T09:52:05;101841.00;;;7.40
5571;BMP180;2808;51.240;6.794;2022-11-30T09:54:37;101831.00;;;7.40
5571;BMP180;2808;51.240;6.794;2022-11-30T09:57:17;101830.00;;;7.40
5571;BMP180;2808;51.240;6.794;2022-11-30T09:59:53;101828.00;;;7.40
5571;BMP180;2808;51.240;6.794;2022-11-30T10:02:26;101831.00;;;7.50
5571;BMP180;2808;51.240;6.794;2022-11-30T10:04:54;101832.00;;;7.50
5571;BMP180;2808;51.240;6.794;2022-11-30T10:07:35;101833.00;;;7.50
5571;BMP180;2808;51.240;6.794;2022-11-30T10:10:09;101832.00;;;7.50
5571;BMP180;2808;51.240;6.794;2022-11-30T10:12:45;101830.00;;;7.50
5571;BMP180;2808;51.240;6.794;2022-11-30T10:15:39;101829.00;;;7.50
5571;BMP180;2808;51.240;6.794;2022-11-30T10:18:21;101833.00;;;7.50
5571;BMP180;2808;51.240;6.794;2022-11-30T10:20:58;101833.00;;;7.50
5571;BMP180;2808;51.240;6.794;2022-11-30T10:23:52;101838.00;;;7.40
5571;BMP180;2808;51.240;6.794;2022-11-30T10:26:28;101830.00;;;7.50
5571;BMP180;2808;51.240;6.794;2022-11-30T10:29:06;101829.00;;;7.50
5571;BMP180;2808;51.240;6.794;2022-11-30T10:31:39;101833.00;;;7.50
5571;BMP180;2808;51.240;6.794;2022-11-30T10:34:19;101835.00;;;7.50
5571;BMP180;2808;51.240;6.794;2022-11-30T10:36:52;101834.00;;;7.40
5571;BMP180;2808;51.240;6.794;2022-11-30T10:39:26;101837.00;;;7.40
5571;BMP180;2808;51.240;6.794;2022-11-30T10:42:01;101830.00;;;7.40
5571;BMP180;2808;51.240;6.794;2022-11-30T10:44:33;101823.00;;;7.50
5571;BMP180;2808;51.240;6.794;2022-11-30T10:47:11;101824.00;;;7.40
5571;BMP180;2808;51.240;6.794;2022-11-30T10:49:46;101823.00;;;7.40
5571;BMP180;2808;51.240;6.794;2022-11-30T10:52:17;101818.00;;;7.40
5571;BMP180;2808;51.240;6.794;2022-11-30T10:54:48;101826.00;;;7.40
5571;BMP180;2808;51.240;6.794;2022-11-30T10:57:17;101823.00;;;7.40
5571;BMP180;2808;51.240;6.794;2022-11-30T10:59:47;101819.00;;;7.40
5571;BMP180;2808;51.240;6.794;2022-11-30T11:02:39;101815.00;;;7.40
5571;BMP180;2808;51.240;6.794;2022-11-30T11:05:20;101818.00;;;7.30
5571;BMP180;2808;51.240;6.794;2022-11-30T11:07:51;101820.00;;;7.30
5571;BMP180;2808;51.240;6.794;2022-11-30T11:10:23;101817.00;;;7.30
5571;BMP180;2808;51.240;6.794;2022-11-30T11:12:53;101823.00;;;7.30
5571;BMP180;2808;51.240;6.794;2022-11-30T11:15:23;101823.00;;;7.30
5571;BMP180;2808;51.240;6.794;2022-11-30T11:17:52;101823.00;;;7.30
5571;BMP180;2808;51.240;6.794;2022-11-30T11:20:33;101821.00;;;7.30
5571;BMP180;2808;51.240;6.794;2022-11-30T11:23:01;101814.00;;;7.30
5571;BMP180;2808;51.240;6.794;2022-11-30T11:25:33;101815.00;;;7.30
5571;BMP180;2808;51.240;6.794;2022-11-30T11:28:04;101823.00;;;7.30
5571;BMP180;2808;51.240;6.794;2022-11-30T11:30:35;101816.00;;;7.30
5571;BMP180;2808;51.240;6.794;2022-11-30T11:33:16;101821.00;;;7.30
5571;BMP180;2808;51.240;6.794;2022-11-30T11:35:51;101819.00;;;7.30
5571;BMP180;2808;51.240;6.794;2022-11-30T11:38:21;101823.00;;;7.40
5571;BMP180;2808;51.240;6.794;2022-11-30T11:40:53;101831.00;;;7.40
5571;BMP180;2808;51.240;6.794;2022-11-30T11:43:32;101823.00;;;7.40
5571;BMP180;2808;51.240;6.794;2022-11-30T11:46:09;101827.00;;;7.50
5571;BMP180;2808;51.240;6.794;2022-11-30T11:48:39;101824.00;;;7.50
5571;BMP180;2808;51.240;6.794;2022-11-30T11:51:10;101823.00;;;7.60
5571;BMP180;2808;51.240;6.794;2022-11-30T11:53:47;101828.00;;;7.60
5571;BMP180;2808;51.240;6.794;2022-11-30T11:56:21;101829.00;;;7.60
5571;BMP180;2808;51.240;6.794;2022-11-30T11:58:54;101832.00;;;7.70
5571;BMP180;2808;51.240;6.794;2022-11-30T12:01:52;101834.00;;;7.70
5571;BMP180;2808;51.240;6.794;2022-11-30T12:04:38;101823.00;;;7.80
5571;BMP180;2808;51.240;6.794;2022-11-30T12:07:21;101820.00;;;7.80
5571;BMP180;2808;51.240;6.794;2022-11-30T12:10:05;101822.00;;;7.80
5571;BMP180;2808;51.240;6.794;2022-11-30T12:12:33;101823.00;;;7.80
5571;BMP180;2808;51.240;6.794;2022-11-30T12:15:01;101824.00;;;7.80
5571;BMP180;2808;51.240;6.794;2022-11-30T12:17:41;101825.00;;;7.80
5571;BMP180;2808;51.240;6.794;2022-11-30T12:20:19;101816.00;;;7.80
5571;BMP180;2808;51.240;6.794;2022-11-30T12:23:13;101804.00;;;7.80
5571;BMP180;2808;51.240;6.794;2022-11-30T12:25:48;101811.00;;;7.90
5571;BMP180;2808;51.240;6.794;2022-11-30T12:28:24;101814.00;;;7.90
5571;BMP180;2808;51.240;6.794;2022-11-30T12:31:04;101805.00;;;7.90
5571;BMP180;2808;51.240;6.794;2022-11-30T12:33:49;101802.00;;;7.90
5571;BMP180;2808;51.240;6.794;2022-11-30T12:36:23;101811.00;;;7.90
5571;BMP180;2808;51.240;6.794;2022-11-30T12:38:58;101804.00;;;7.90
5571;BMP180;2808;51.240;6.794;2022-11-30T12:41:37;101810.00;;;8.00
5571;BMP180;2808;51.240;6.794;2022-11-30T12:44:23;101809.00;;;8.00
5571;BMP180;2808;51.240;6.794;2022-11-30T12:47:00;101817.00;;;7.90
5571;BMP180;2808;51.240;6.794;2022-11-30T12:49:43;101818.00;;;7.90
5571;BMP180;2808;51.240;6.794;2022-11-30T12:52:24;101824.00;;;7.80
5571;BMP180;2808;51.240;6.794;2022-11-30T12:55:06;101829.00;;;7.90
5571;BMP180;2808;51.240;6.794;2022-11-30T12:57:42;101828.00;;;7.80
5571;BMP180;2808;51.240;6.794;2022-11-30T13:00:17;101831.00;;;7.80
5571;BMP180;2808;51.240;6.794;2022-11-30T13:03:12;101823.00;;;7.80
5571;BMP180;2808;51.240;6.794;2022-11-30T13:05:48;101826.00;;;7.80
5571;BMP180;2808;51.240;6.794;2022-11-30T13:08:21;101831.00;;;7.90
5571;BMP180;2808;51.240;6.794;2022-11-30T13:10:55;101825.00;;;7.90
5571;BMP180;2808;51.240;6.794;2022-11-30T13:13:27;101829.00;;;7.90
5571;BMP180;2808;51.240;6.794;2022-11-30T13:15:56;101826.00;;;7.90
5571;BMP180;2808;51.240;6.794;2022-11-30T13:18:25;101827.00;;;7.80
5571;BMP180;2808;51.240;6.794;2022-11-30T13:20:57;101824.00;;;7.80
5571;BMP180;2808;51.240;6.794;2022-11-30T13:23:31;101834.00;;;7.70
5571;BMP180;2808;51.240;6.794;2022-11-30T13:49:31;101826.00;;;7.50
5571;BMP180;2808;51.240;6.794;2022-11-30T13:55:54;101840.00;;;7.50
5571;BMP180;2808;51.240;6.794;2022-11-30T13:58:38;101828.00;;;7.50
5571;BMP180;2808;51.240;6.794;2022-11-30T14:48:15;101857.00;;;7.40
5571;BMP180;2808;51.240;6.794;2022-11-30T14:50:45;101857.00;;;7.40
5571;BMP180;2808;51.240;6.794;2022-11-30T14:53:21;101870.00;;;7.30
5571;BMP180;2808;51.240;6.794;2022-11-30T14:55:55;101870.00;;;7.40
5571;BMP180;2808;51.240;6.794;2022-11-30T14:58:31;101862.00;;;7.40
5571;BMP180;2808;51.240;6.794;2022-11-30T15:01:04;101862.00;;;7.30
5571;BMP180;2808;51.240;6.794;2022-11-30T15:03:34;101864.00;;;7.30
5571;BMP180;2808;51.240;6.794;2022-11-30T15:06:04;101869.00;;;7.30
5571;BMP180;2808;51.240;6.794;2022-11-30T15:08:34;101863.00;;;7.30
5571;BMP180;2808;51.240;6.794;2022-11-30T15:11:09;101864.00;;;7.30
5571;BMP180;2808;51.240;6.794;2022-11-30T15:13:39;101872.00;;;7.20
5571;BMP180;2808;51.240;6.794;2022-11-30T15:16:13;101864.00;;;7.30
5571;BMP180;2808;51.240;6.794;2022-11-30T15:18:44;101869.00;;;7.30
5571;BMP180;2808;51.240;6.794;2022-11-30T15:21:19;101873.00;;;7.30
5571;BMP180;2808;51.240;6.794;2022-11-30T15:23:55;101875.00;;;7.30
5571;BMP180;2808;51.240;6.794;2022-11-30T15:26:55;101872.00;;;7.30
5571;BMP180;2808;51.240;6.794;2022-11-30T15:29:32;101872.00;;;7.30
5571;BMP180;2808;51.240;6.794;2022-11-30T15:32:13;101864.00;;;7.20
5571;BMP180;2808;51.240;6.794;2022-11-30T15:34:47;101873.00;;;7.30
5571;BMP180;2808;51.240;6.794;2022-11-30T15:37:16;101872.00;;;7.30
5571;BMP180;2808;51.240;6.794;2022-11-30T15:39:48;101887.00;;;7.30
5571;BMP180;2808;51.240;6.794;2022-11-30T15:42:21;101885.00;;;7.20
5571;BMP180;2808;51.240;6.794;2022-11-30T15:44:50;101890.00;;;7.20
5571;BMP180;2808;51.240;6.794;2022-11-30T15:47:26;101886.00;;;7.20
5571;BMP180;2808;51.240;6.794;2022-11-30T15:49:59;101884.00;;;7.20
5571;BMP180;2808;51.240;6.794;2022-11-30T15:52:29;101888.00;;;7.20
5571;BMP180;2808;51.240;6.794;2022-11-30T15:54:58;101885.00;;;7.10
5571;BMP180;2808;51.240;6.794;2022-11-30T15:57:55;101889.00;;;7.10
5571;BMP180;2808;51.240;6.794;2022-11-30T16:00:24;101889.00;;;7.10
5571;BMP180;2808;51.240;6.794;2022-11-30T16:03:07;101893.00;;;7.10
5571;BMP180;2808;51.240;6.794;2022-11-30T16:05:37;101891.00;;;7.20
5571;BMP180;2808;51.240;6.794;2022-11-30T16:08:13;101890.00;;;7.20
5571;BMP180;2808;51.240;6.794;2022-11-30T16:10:43;101897.00;;;7.20
5571;BMP180;2808;51.240;6.794;2022-11-30T16:13:28;101897.00;;;7.20
5571;BMP180;2808;51.240;6.794;2022-11-30T16:16:09;101898.00;;;7.20
5571;BMP180;2808;51.240;6.794;2022-11-30T16:18:39;101894.00;;;7.20